Time;durP1;ratioP1;P1;durP2;ratioP2;P2;SDS_P1;SDS_P2;PMS_P1;PMS_P2;Temp;Humidity;BMP_temperature;BMP_pressure;BME280_temperature;BME280_humidity;BME280_pressure;Samples;Min_cycle;Max_cycle;Signal;HPM_P1;HPM_P2
2023/09/25 00:01:36;;;;;;;2.17;0.93;;;14.40;99.90;;;;;;6188194;23;20225;-87
2023/09/25 00:04:02;;;;;;;1.77;1.40;;;14.40;99.90;;;;;;6187553;23;20643;-86
2023/09/25 00:06:29;;;;;;;1.03;0.93;;;14.40;99.90;;;;;;6163425;23;20170;-86
2023/09/25 00:08:55;;;;;;;1.30;1.13;;;14.50;99.90;;;;;;6187272;23;20190;-86
2023/09/25 00:11:21;;;;;;;1.97;1.73;;;14.50;99.90;;;;;;6186818;23;20206;-86
2023/09/25 00:13:47;;;;;;;1.13;1.03;;;14.50;99.90;;;;;;6211736;23;20205;-86
2023/09/25 00:16:14;;;;;;;1.40;1.30;;;14.50;99.90;;;;;;6188084;23;20213;-85
2023/09/25 00:18:40;;;;;;;1.00;1.00;;;14.50;99.90;;;;;;6164085;23;20235;-86
2023/09/25 00:21:06;;;;;;;0.97;0.93;;;14.50;99.90;;;;;;6212207;23;20221;-86
2023/09/25 00:23:32;;;;;;;1.63;1.00;;;14.50;99.90;;;;;;6163165;23;20194;-86
2023/09/25 00:26:08;;;;;;;1.40;1.20;;;14.50;99.90;;;;;;6213201;23;20720;-86
2023/09/25 00:28:34;;;;;;;2.10;0.90;;;14.50;99.90;;;;;;6187564;23;20197;-86
2023/09/25 00:31:00;;;;;;;1.83;1.20;;;14.50;99.90;;;;;;6187373;23;20194;-86
2023/09/25 00:33:26;;;;;;;1.03;0.93;;;14.50;99.90;;;;;;6184137;23;20514;-86
2023/09/25 00:35:56;;;;;;;1.00;0.83;;;14.50;99.90;;;;;;6157662;23;20193;-86
2023/09/25 00:38:22;;;;;;;1.43;1.33;;;14.50;99.90;;;;;;6236862;23;20205;-86
2023/09/25 00:40:48;;;;;;;1.47;0.83;;;14.50;99.90;;;;;;6238447;23;20276;-85
2023/09/25 00:43:14;;;;;;;1.93;1.83;;;14.50;99.90;;;;;;6213216;23;20522;-86
2023/09/25 00:45:42;;;;;;;1.70;1.00;;;14.50;99.90;;;;;;6239011;23;20166;-86
2023/09/25 00:48:19;;;;;;;0.97;0.57;;;14.50;99.90;;;;;;6213453;23;20737;-84
2023/09/25 00:50:45;;;;;;;8.17;1.63;;;14.40;99.90;;;;;;6238045;23;20216;-86
2023/09/25 00:53:11;;;;;;;1.27;1.17;;;14.40;99.90;;;;;;6162199;23;20260;-85
2023/09/25 00:55:38;;;;;;;2.03;1.30;;;14.40;99.90;;;;;;6162082;23;20194;-86
2023/09/25 00:58:05;;;;;;;3.33;1.47;;;14.40;99.90;;;;;;6186720;23;20204;-86
2023/09/25 01:00:31;;;;;;;1.53;1.30;;;14.40;99.90;;;;;;6212425;23;20185;-86
2023/09/25 01:02:56;;;;;;;1.40;1.30;;;14.30;99.90;;;;;;6161610;23;20214;-86
2023/09/25 01:05:22;;;;;;;4.37;1.13;;;14.20;99.90;;;;;;6236927;23;20221;-86
2023/09/25 01:07:48;;;;;;;2.53;1.40;;;14.20;99.90;;;;;;6187062;23;20190;-86
2023/09/25 01:10:19;;;;;;;1.83;1.70;;;14.20;99.90;;;;;;6187240;23;20204;-86
2023/09/25 01:12:46;;;;;;;1.20;1.10;;;14.10;99.90;;;;;;6212267;23;20181;-87
2023/09/25 01:15:14;;;;;;;0.83;0.80;;;14.10;99.90;;;;;;6237797;23;20150;-87
2023/09/25 01:17:41;;;;;;;0.97;0.87;;;14.10;99.90;;;;;;6211949;23;20213;-86
2023/09/25 01:20:13;;;;;;;1.80;1.70;;;14.00;99.90;;;;;;6237006;23;20223;-86
2023/09/25 01:22:40;;;;;;;1.23;1.13;;;14.00;99.90;;;;;;6211855;23;20243;-86
2023/09/25 01:25:06;;;;;;;1.70;1.60;;;13.90;99.90;;;;;;6162315;23;20198;-87
2023/09/25 01:27:32;;;;;;;3.20;1.07;;;13.90;99.90;;;;;;6187946;23;20488;-86
2023/09/25 01:29:58;;;;;;;1.37;1.27;;;13.80;99.90;;;;;;6186936;23;20206;-86
2023/09/25 01:32:24;;;;;;;2.07;1.70;;;13.70;99.90;;;;;;6185206;23;20208;-86
2023/09/25 01:34:49;;;;;;;2.00;1.73;;;13.70;99.90;;;;;;6182062;23;20585;-86
2023/09/25 01:37:15;;;;;;;2.60;1.63;;;13.70;99.90;;;;;;6158389;23;20651;-85
2023/09/25 01:39:42;;;;;;;3.13;1.50;;;13.70;99.90;;;;;;6188805;23;20166;-86
2023/09/25 01:42:08;;;;;;;2.00;1.40;;;13.70;99.90;;;;;;6212821;23;20205;-85
2023/09/25 01:44:34;;;;;;;3.00;1.33;;;13.60;99.90;;;;;;6211833;23;20202;-86
2023/09/25 01:47:00;;;;;;;1.77;1.60;;;13.60;99.90;;;;;;6188592;23;20193;-86
2023/09/25 01:49:27;;;;;;;7.50;1.93;;;13.60;99.90;;;;;;6164012;23;20646;-86
2023/09/25 01:51:53;;;;;;;2.27;1.50;;;13.50;99.90;;;;;;6189793;23;20194;-86
2023/09/25 01:54:18;;;;;;;1.60;1.30;;;13.50;99.90;;;;;;6215108;23;20237;-86
2023/09/25 01:56:47;;;;;;;1.47;1.13;;;13.50;99.90;;;;;;6189293;23;20674;-86
2023/09/25 01:59:13;;;;;;;1.30;1.20;;;13.50;99.90;;;;;;6189125;23;20269;-86
2023/09/25 02:01:39;;;;;;;4.57;1.30;;;13.40;99.90;;;;;;6163800;23;20225;-86
2023/09/25 02:04:07;;;;;;;1.27;1.17;;;13.40;99.90;;;;;;6189366;23;20225;-86
2023/09/25 02:06:33;;;;;;;2.40;2.20;;;13.30;99.90;;;;;;6190188;23;20490;-86
2023/09/25 02:08:59;;;;;;;2.47;1.73;;;13.20;99.90;;;;;;6164067;23;20284;-85
2023/09/25 02:11:25;;;;;;;1.50;1.40;;;13.10;99.90;;;;;;6188530;23;20225;-85
2023/09/25 02:13:51;;;;;;;1.23;1.13;;;13.10;99.90;;;;;;6239235;23;20210;-85
2023/09/25 02:16:18;;;;;;;1.47;1.37;;;13.10;99.90;;;;;;6213177;23;20264;-85
2023/09/25 02:18:44;;;;;;;1.83;1.67;;;13.10;99.90;;;;;;6164355;23;20610;-85
2023/09/25 02:21:09;;;;;;;1.57;1.03;;;13.00;99.90;;;;;;6239413;23;20237;-85
2023/09/25 02:23:36;;;;;;;2.00;1.57;;;13.00;99.90;;;;;;6238577;23;20202;-86
2023/09/25 02:26:01;;;;;;;3.93;1.97;;;13.00;99.90;;;;;;6213780;23;20212;-85
2023/09/25 02:28:27;;;;;;;1.80;1.67;;;12.90;99.90;;;;;;6189022;23;20190;-85
2023/09/25 02:30:53;;;;;;;1.07;1.07;;;12.90;99.90;;;;;;6213787;23;20166;-85
2023/09/25 02:33:18;;;;;;;0.90;0.80;;;12.90;99.90;;;;;;6161200;23;20193;-86
2023/09/25 02:35:44;;;;;;;2.80;1.70;;;12.80;99.90;;;;;;6159345;23;20194;-86
2023/09/25 02:38:10;;;;;;;2.37;1.57;;;12.80;99.90;;;;;;6185703;23;20209;-86
2023/09/25 02:40:36;;;;;;;2.33;1.40;;;12.80;99.90;;;;;;6214336;23;20197;-85
2023/09/25 02:43:01;;;;;;;1.23;1.13;;;12.80;99.90;;;;;;6188725;23;20260;-85
2023/09/25 02:45:27;;;;;;;1.60;1.50;;;12.80;99.90;;;;;;6165209;23;20159;-85
2023/09/25 02:47:53;;;;;;;4.70;1.70;;;12.80;99.90;;;;;;6164169;23;20194;-85
2023/09/25 02:50:18;;;;;;;2.40;1.47;;;12.80;99.90;;;;;;6189220;23;20537;-86
2023/09/25 02:52:44;;;;;;;1.30;1.20;;;12.80;99.90;;;;;;6189084;23;20194;-85
2023/09/25 02:55:11;;;;;;;3.00;1.57;;;12.80;99.90;;;;;;6214065;23;20224;-86
2023/09/25 02:57:37;;;;;;;5.50;1.60;;;12.80;99.90;;;;;;6189347;23;20154;-85
2023/09/25 03:00:11;;;;;;;1.33;1.00;;;12.80;99.90;;;;;;6238239;23;20204;-86
2023/09/25 03:02:37;;;;;;;4.07;1.47;;;12.80;99.90;;;;;;6189764;23;20217;-85
2023/09/25 03:05:05;;;;;;;2.03;1.50;;;12.80;99.90;;;;;;6188112;23;20228;-85
2023/09/25 03:07:31;;;;;;;1.30;1.20;;;12.80;99.90;;;;;;6188244;23;20198;-86
2023/09/25 03:09:57;;;;;;;2.67;1.80;;;12.80;99.90;;;;;;6163023;23;20786;-86
2023/09/25 03:12:22;;;;;;;3.33;3.10;;;12.80;99.90;;;;;;6188541;23;20158;-85
2023/09/25 03:14:48;;;;;;;0.97;0.93;;;12.80;99.90;;;;;;6188151;23;20221;-85
2023/09/25 03:17:14;;;;;;;2.03;1.60;;;12.80;99.90;;;;;;6163828;23;20206;-86
2023/09/25 03:19:40;;;;;;;1.40;1.23;;;12.80;99.90;;;;;;6188139;23;20194;-85
2023/09/25 03:22:06;;;;;;;2.00;1.47;;;12.80;99.90;;;;;;6188132;23;20205;-85
2023/09/25 03:24:32;;;;;;;2.77;1.50;;;12.80;99.90;;;;;;6163597;23;20241;-86
2023/09/25 03:26:57;;;;;;;1.13;1.03;;;12.80;99.90;;;;;;6188173;23;20205;-85
2023/09/25 03:29:23;;;;;;;2.00;1.40;;;12.80;99.90;;;;;;6163380;23;20255;-86
2023/09/25 03:31:50;;;;;;;1.30;1.20;;;12.70;99.90;;;;;;6162977;23;20201;-85
2023/09/25 03:34:15;;;;;;;2.93;1.60;;;12.70;99.90;;;;;;6159657;23;20206;-85
2023/09/25 03:36:41;;;;;;;1.37;1.27;;;12.70;99.90;;;;;;6210133;23;20196;-85
2023/09/25 03:39:07;;;;;;;1.70;1.33;;;12.70;99.90;;;;;;6164470;23;20269;-85
2023/09/25 03:41:32;;;;;;;1.73;1.40;;;12.70;99.90;;;;;;6164110;23;20204;-85
2023/09/25 03:43:58;;;;;;;3.60;1.03;;;12.70;99.90;;;;;;6237986;23;20190;-86
2023/09/25 03:46:24;;;;;;;7.07;1.83;;;12.70;99.90;;;;;;6162905;23;20194;-86
2023/09/25 03:48:50;;;;;;;4.70;1.47;;;12.70;99.90;;;;;;6162966;23;20158;-85
2023/09/25 03:51:15;;;;;;;1.20;1.10;;;12.80;99.90;;;;;;6188795;23;20169;-85
2023/09/25 03:53:41;;;;;;;0.80;0.80;;;12.80;99.90;;;;;;6163258;23;20651;-85
2023/09/25 03:56:07;;;;;;;1.77;1.10;;;12.80;99.90;;;;;;6188131;23;20190;-86
2023/09/25 03:58:32;;;;;;;1.87;1.70;;;12.80;99.90;;;;;;6162888;23;20257;-86
2023/09/25 04:00:59;;;;;;;1.20;1.10;;;12.90;99.90;;;;;;6162903;23;20245;-86
2023/09/25 04:03:25;;;;;;;1.67;1.20;;;12.80;99.90;;;;;;6238510;23;20197;-85
2023/09/25 04:05:50;;;;;;;1.43;1.20;;;12.80;99.90;;;;;;6187916;23;20213;-85
2023/09/25 04:08:16;;;;;;;2.20;1.40;;;12.80;99.90;;;;;;6237518;23;20229;-86
2023/09/25 04:10:43;;;;;;;1.27;1.10;;;12.80;99.90;;;;;;6187484;23;20194;-86
2023/09/25 04:13:10;;;;;;;2.40;1.40;;;12.90;99.90;;;;;;6164181;23;20639;-85
2023/09/25 04:15:37;;;;;;;1.20;1.10;;;12.90;99.90;;;;;;6165573;23;20622;-86
2023/09/25 04:18:06;;;;;;;2.40;2.20;;;12.90;99.90;;;;;;6188036;23;20198;-85
2023/09/25 04:20:33;;;;;;;1.90;1.50;;;12.90;99.90;;;;;;6164095;23;20198;-85
2023/09/25 04:22:58;;;;;;;1.03;1.03;;;12.90;99.90;;;;;;6187703;23;20192;-86
2023/09/25 04:25:24;;;;;;;3.40;0.93;;;12.90;99.90;;;;;;6162509;23;20220;-85
2023/09/25 04:27:53;;;;;;;2.03;1.40;;;12.90;99.90;;;;;;6162685;23;20615;-85
2023/09/25 04:30:20;;;;;;;2.20;1.57;;;12.90;99.90;;;;;;6213422;23;20150;-85
2023/09/25 04:32:48;;;;;;;1.23;1.13;;;13.00;99.90;;;;;;6235683;23;20654;-85
2023/09/25 04:35:15;;;;;;;2.53;1.43;;;12.90;99.90;;;;;;6182907;23;20204;-85
2023/09/25 04:37:41;;;;;;;5.63;0.93;;;13.00;99.90;;;;;;6184118;23;20190;-85
2023/09/25 04:40:22;;;;;;;2.30;1.57;;;13.00;99.90;;;;;;6187570;23;20252;-85
2023/09/25 04:42:52;;;;;;;1.40;1.00;;;13.00;99.90;;;;;;6190528;23;20152;-85
2023/09/25 04:45:19;;;;;;;2.83;2.00;;;13.00;99.90;;;;;;6212374;23;20147;-85
2023/09/25 04:47:46;;;;;;;1.87;1.30;;;13.00;99.90;;;;;;6186859;23;20205;-85
2023/09/25 04:50:12;;;;;;;1.50;1.07;;;13.10;99.90;;;;;;6186753;23;20194;-85
2023/09/25 04:52:40;;;;;;;2.13;1.33;;;13.10;99.90;;;;;;6211577;23;20652;-85
2023/09/25 04:55:07;;;;;;;2.47;1.60;;;13.10;99.90;;;;;;6213371;23;20209;-86
2023/09/25 04:57:33;;;;;;;3.27;1.00;;;13.20;99.90;;;;;;6188225;23;20221;-86
2023/09/25 05:00:21;;;;;;;1.70;1.20;;;13.10;99.90;;;;;;6186882;23;20198;-86
2023/09/25 05:02:47;;;;;;;1.37;1.07;;;13.20;99.90;;;;;;6212012;23;20213;-86
2023/09/25 05:05:14;;;;;;;1.00;0.90;;;13.20;99.90;;;;;;6211791;23;20244;-85
2023/09/25 05:07:44;;;;;;;7.27;1.20;;;13.20;99.90;;;;;;6187077;23;20639;-85
2023/09/25 05:10:14;;;;;;;3.83;1.40;;;13.20;99.90;;;;;;6162734;23;20198;-86
2023/09/25 05:12:42;;;;;;;5.60;0.93;;;13.20;99.90;;;;;;6187754;23;20170;-86
2023/09/25 05:15:08;;;;;;;2.50;1.57;;;13.20;99.90;;;;;;6211732;23;20202;-85
2023/09/25 05:17:36;;;;;;;1.70;1.40;;;13.20;99.90;;;;;;6162788;23;20197;-86
2023/09/25 05:20:06;;;;;;;3.57;1.20;;;13.20;99.90;;;;;;6162845;23;20252;-85
2023/09/25 05:22:31;;;;;;;2.53;1.33;;;13.20;99.90;;;;;;6189455;23;20194;-86
2023/09/25 05:24:57;;;;;;;1.60;1.50;;;13.20;99.90;;;;;;6216870;23;20212;-86
2023/09/25 05:27:23;;;;;;;2.97;2.23;;;13.20;99.90;;;;;;6190059;23;20158;-85
2023/09/25 05:29:49;;;;;;;1.87;1.50;;;13.10;99.90;;;;;;6164180;23;21030;-86
2023/09/25 05:32:14;;;;;;;2.13;1.63;;;13.10;99.90;;;;;;6159672;23;20201;-86
2023/09/25 05:34:40;;;;;;;2.90;1.43;;;13.10;99.90;;;;;;6159496;23;20662;-87
2023/09/25 05:37:06;;;;;;;1.13;1.10;;;13.10;99.90;;;;;;6162788;23;20262;-86
2023/09/25 05:39:32;;;;;;;2.07;1.80;;;13.10;99.90;;;;;;6165174;23;20165;-86
2023/09/25 05:41:57;;;;;;;3.13;1.50;;;13.20;99.90;;;;;;6188899;23;20301;-86
2023/09/25 05:44:23;;;;;;;1.93;1.83;;;13.20;99.90;;;;;;6239132;23;20201;-86
2023/09/25 05:46:49;;;;;;;1.50;1.40;;;13.20;99.90;;;;;;6163806;23;20269;-86
2023/09/25 05:49:14;;;;;;;2.50;1.63;;;13.20;99.90;;;;;;6164126;23;20194;-86
2023/09/25 05:51:41;;;;;;;1.13;1.10;;;13.20;99.90;;;;;;6164592;23;20162;-86
2023/09/25 05:54:06;;;;;;;3.20;1.37;;;13.20;99.90;;;;;;6189114;23;20209;-86
2023/09/25 05:56:32;;;;;;;2.07;1.10;;;13.20;99.90;;;;;;6188557;23;20519;-86
2023/09/25 05:58:59;;;;;;;1.13;1.03;;;13.20;99.90;;;;;;6163800;23;20201;-86
2023/09/25 06:01:25;;;;;;;2.00;1.90;;;13.30;99.90;;;;;;6188221;23;20196;-86
2023/09/25 06:03:51;;;;;;;4.70;1.47;;;13.20;99.90;;;;;;6188452;23;20633;-86
2023/09/25 06:06:17;;;;;;;1.63;1.53;;;13.30;99.90;;;;;;6164701;23;20173;-86
2023/09/25 06:08:43;;;;;;;1.53;1.30;;;13.30;99.90;;;;;;6188484;23;20540;-87
2023/09/25 06:11:08;;;;;;;1.47;1.37;;;13.30;99.90;;;;;;6163930;23;20204;-87
2023/09/25 06:13:34;;;;;;;2.73;1.23;;;13.40;99.90;;;;;;6163932;23;20205;-87
2023/09/25 06:16:00;;;;;;;1.73;1.17;;;13.40;99.90;;;;;;6188109;23;20675;-86
2023/09/25 06:18:26;;;;;;;1.57;1.10;;;13.40;99.90;;;;;;6214277;23;20159;-87
2023/09/25 06:20:52;;;;;;;1.83;1.10;;;13.40;99.90;;;;;;6163316;23;20280;-85
2023/09/25 06:23:17;;;;;;;1.90;1.20;;;13.40;99.90;;;;;;6163188;23;21016;-86
2023/09/25 06:25:44;;;;;;;1.53;1.43;;;13.40;99.90;;;;;;6163446;23;20658;-85
2023/09/25 06:28:14;;;;;;;0.80;0.80;;;13.40;99.90;;;;;;6163364;23;20633;-85
2023/09/25 06:30:42;;;;;;;1.47;1.03;;;13.50;99.90;;;;;;6189211;23;20166;-85
2023/09/25 06:33:08;;;;;;;1.47;1.10;;;13.50;99.90;;;;;;6210734;23;20185;-85
2023/09/25 06:35:37;;;;;;;0.80;0.80;;;13.50;99.90;;;;;;6183126;23;20277;-84
2023/09/25 06:38:03;;;;;;;1.20;1.03;;;13.50;99.90;;;;;;6160972;23;20217;-84
2023/09/25 06:40:28;;;;;;;3.50;1.50;;;13.60;99.90;;;;;;6162333;23;20194;-84
2023/09/25 06:42:54;;;;;;;1.17;0.83;;;13.70;99.90;;;;;;6163100;23;20165;-84
2023/09/25 06:45:21;;;;;;;6.70;1.67;;;13.80;99.90;;;;;;6163351;23;20241;-84
2023/09/25 06:47:47;;;;;;;3.60;1.63;;;13.80;99.90;;;;;;6163502;23;20194;-86
2023/09/25 06:50:13;;;;;;;1.77;1.30;;;13.90;99.90;;;;;;6238657;23;20197;-86
2023/09/25 06:52:40;;;;;;;2.30;2.17;;;14.00;99.90;;;;;;6163241;23;20242;-86
2023/09/25 06:55:06;;;;;;;3.33;1.20;;;14.20;99.90;;;;;;6188012;23;20647;-86
2023/09/25 06:57:32;;;;;;;1.57;1.00;;;14.40;99.90;;;;;;6163617;23;20163;-87
2023/09/25 06:59:58;;;;;;;2.27;1.20;;;14.50;99.90;;;;;;6188009;23;20208;-88
2023/09/25 07:02:25;;;;;;;1.27;0.80;;;14.90;99.90;;;;;;6213550;23;20213;-89
2023/09/25 07:04:51;;;;;;;0.90;0.80;;;15.20;99.90;;;;;;6189246;23;20654;-90
2023/09/25 07:07:17;;;;;;;1.53;1.43;;;15.40;99.90;;;;;;6163788;23;20204;-89
2023/09/25 07:09:42;;;;;;;1.57;1.10;;;15.40;99.90;;;;;;6213920;23;20607;-91
2023/09/25 07:12:12;;;;;;;1.57;1.30;;;15.30;99.90;;;;;;6164880;23;20224;-87
2023/09/25 07:14:40;;;;;;;1.50;1.40;;;15.10;99.90;;;;;;6189063;23;20515;-87
2023/09/25 07:17:06;;;;;;;1.87;1.40;;;15.10;99.90;;;;;;6238717;23;20643;-88
2023/09/25 07:19:32;;;;;;;1.20;1.00;;;15.20;99.90;;;;;;6164123;23;20193;-87
2023/09/25 07:21:58;;;;;;;1.30;1.20;;;15.20;99.90;;;;;;6188121;23;20500;-89
2023/09/25 07:24:24;;;;;;;1.17;1.10;;;15.20;99.90;;;;;;6163720;23;20158;-89
2023/09/25 07:26:51;;;;;;;1.33;1.13;;;15.30;99.90;;;;;;6163984;23;20201;-90
2023/09/25 07:29:19;;;;;;;2.57;1.40;;;15.60;99.90;;;;;;6189088;23;20213;-88
2023/09/25 07:31:44;;;;;;;1.77;1.10;;;15.70;99.90;;;;;;6164188;23;20197;-87
2023/09/25 07:34:10;;;;;;;2.73;1.10;;;15.60;99.90;;;;;;6184781;23;20202;-87
2023/09/25 07:36:36;;;;;;;1.07;1.03;;;15.50;99.90;;;;;;6209401;23;20591;-87
2023/09/25 07:39:04;;;;;;;0.87;0.87;;;15.50;99.90;;;;;;6163108;23;20232;-87
2023/09/25 07:41:29;;;;;;;1.17;1.07;;;15.70;99.90;;;;;;6188552;23;20703;-87
2023/09/25 07:43:55;;;;;;;2.20;1.30;;;16.00;99.90;;;;;;6212690;23;20205;-86
2023/09/25 07:46:21;;;;;;;4.60;1.40;;;16.40;99.90;;;;;;6162929;23;20281;-87
2023/09/25 07:48:47;;;;;;;0.83;0.80;;;16.70;99.90;;;;;;6213373;23;20489;-87
2023/09/25 07:51:13;;;;;;;1.63;1.30;;;16.70;99.90;;;;;;6185520;23;20158;-86
2023/09/25 07:53:39;;;;;;;2.43;1.30;;;16.80;99.90;;;;;;6213408;23;20643;-88
2023/09/25 07:56:05;;;;;;;1.57;1.10;;;17.30;99.90;;;;;;6188169;23;20369;-87
2023/09/25 07:58:32;;;;;;;1.27;1.03;;;17.70;99.90;;;;;;6213176;23;20711;-87
2023/09/25 08:01:04;;;;;;;2.37;1.47;;;18.20;99.90;;;;;;6163351;23;20634;-86
2023/09/25 08:03:30;;;;;;;2.70;1.23;;;18.30;99.90;;;;;;6165641;23;20296;-87
2023/09/25 08:05:57;;;;;;;1.10;1.00;;;18.40;99.90;;;;;;6162782;23;20299;-87
2023/09/25 08:08:24;;;;;;;2.60;1.47;;;18.10;99.90;;;;;;6163501;23;20198;-87
2023/09/25 08:10:49;;;;;;;1.50;1.20;;;17.60;99.90;;;;;;6163593;23;20200;-87
2023/09/25 08:13:17;;;;;;;1.63;1.27;;;17.40;99.90;;;;;;6237969;23;20289;-88
2023/09/25 08:15:43;;;;;;;4.87;1.20;;;17.40;99.90;;;;;;6164314;23;20163;-89
2023/09/25 08:18:09;;;;;;;1.73;1.50;;;17.40;99.90;;;;;;6188754;23;20155;-89
2023/09/25 08:20:35;;;;;;;2.10;1.30;;;17.40;99.90;;;;;;6187711;23;20668;-88
2023/09/25 08:23:01;;;;;;;1.17;1.10;;;17.50;99.90;;;;;;6187687;23;20194;-87
2023/09/25 08:25:27;;;;;;;4.60;1.40;;;17.60;99.90;;;;;;6212332;23;20200;-86
2023/09/25 08:27:53;;;;;;;2.67;1.40;;;17.60;99.90;;;;;;6162736;23;20165;-86
2023/09/25 08:30:18;;;;;;;2.97;1.20;;;17.60;99.90;;;;;;6163962;23;20162;-88
2023/09/25 08:32:45;;;;;;;2.30;1.33;;;17.30;99.90;;;;;;6161478;23;20228;-87
2023/09/25 08:35:11;;;;;;;2.13;1.27;;;17.40;99.90;;;;;;6183129;23;20209;-88
2023/09/25 08:37:40;;;;;;;1.03;0.93;;;17.70;99.90;;;;;;6183636;23;20198;-88
2023/09/25 08:40:09;;;;;;;1.30;1.20;;;18.50;99.90;;;;;;6214063;23;20569;-88
2023/09/25 08:42:36;;;;;;;2.50;1.30;;;19.10;99.90;;;;;;6213650;23;20161;-88
2023/09/25 08:45:03;;;;;;;1.63;1.40;;;19.60;99.90;;;;;;6213250;23;20201;-88
2023/09/25 08:47:31;;;;;;;1.80;1.67;;;19.60;99.90;;;;;;6237999;23;20209;-87
2023/09/25 08:49:58;;;;;;;2.40;1.53;;;19.40;99.90;;;;;;6212842;23;20208;-88
2023/09/25 08:52:24;;;;;;;2.50;1.67;;;19.40;99.90;;;;;;6213695;23;20204;-89
2023/09/25 08:54:51;;;;;;;1.70;1.60;;;19.50;99.90;;;;;;6188469;23;20186;-89
2023/09/25 08:57:17;;;;;;;2.90;1.10;;;19.30;99.90;;;;;;6188541;23;20161;-89
2023/09/25 08:59:51;;;;;;;3.80;1.30;;;19.00;99.90;;;;;;6187605;23;20197;-88
2023/09/25 09:02:18;;;;;;;2.23;1.47;;;19.30;99.90;;;;;;6188672;23;20202;-87
2023/09/25 09:04:45;;;;;;;2.53;1.83;;;19.10;99.90;;;;;;6212651;23;20225;-86
2023/09/25 09:07:12;;;;;;;2.50;1.30;;;19.00;99.90;;;;;;6212510;23;20524;-86
2023/09/25 09:09:39;;;;;;;3.30;1.97;;;18.70;99.90;;;;;;6188367;23;20154;-86
2023/09/25 09:12:07;;;;;;;1.03;0.97;;;18.80;99.90;;;;;;6186944;23;20194;-86
2023/09/25 09:14:41;;;;;;;2.80;1.20;;;18.80;99.90;;;;;;6162591;23;20654;-87
2023/09/25 09:17:09;;;;;;;2.10;1.70;;;18.80;99.90;;;;;;6212213;23;20276;-90
2023/09/25 09:19:43;;;;;;;6.03;1.70;;;18.60;99.90;;;;;;6187366;23;20194;-86
2023/09/25 09:22:10;;;;;;;1.33;1.20;;;18.60;99.90;;;;;;6237527;23;20239;-91
2023/09/25 09:24:43;;;;;;;1.93;1.53;;;18.70;99.90;;;;;;6190270;23;20166;-90
2023/09/25 09:27:09;;;;;;;2.20;1.37;;;18.90;99.90;;;;;;6189850;23;20255;-89
2023/09/25 09:29:40;;;;;;;2.40;1.27;;;18.90;99.90;;;;;;6213681;23;20277;-92
2023/09/25 09:32:06;;;;;;;5.23;2.43;;;18.90;99.90;;;;;;6188420;23;20201;-92
2023/09/25 09:34:33;;;;;;;2.93;1.50;;;19.00;99.90;;;;;;6210410;23;20202;-92
2023/09/25 09:36:59;;;;;;;1.93;1.37;;;19.30;99.90;;;;;;6212868;23;20162;-89
2023/09/25 09:39:25;;;;;;;1.50;1.10;;;19.90;99.90;;;;;;6213323;23;20158;-89
2023/09/25 09:41:55;;;;;;;1.37;1.27;;;20.30;99.90;;;;;;6213069;23;20655;-90
2023/09/25 09:44:22;;;;;;;1.70;1.10;;;21.00;99.90;;;;;;6211817;23;20288;-87
2023/09/25 09:46:51;;;;;;;3.07;1.13;;;21.90;99.90;;;;;;6188113;23;20228;-89
2023/09/25 09:49:21;;;;;;;6.00;1.57;;;22.10;99.90;;;;;;6213135;23;20224;-86
2023/09/25 09:51:49;;;;;;;1.70;1.53;;;22.50;99.90;;;;;;6213249;23;20158;-89
2023/09/25 09:54:18;;;;;;;5.40;1.97;;;22.90;99.90;;;;;;6213027;23;20189;-87
2023/09/25 09:56:48;;;;;;;1.60;1.30;;;22.70;99.90;;;;;;6213275;23;20197;-88
2023/09/25 09:59:18;;;;;;;2.50;1.30;;;22.50;99.90;;;;;;6188370;23;20650;-88
2023/09/25 10:01:46;;;;;;;2.67;1.40;;;22.60;99.90;;;;;;6238523;23;20221;-87
2023/09/25 10:04:13;;;;;;;2.13;1.30;;;22.70;99.90;;;;;;6213946;23;20709;-86
2023/09/25 10:07:08;;;;;;;1.47;1.20;;;22.90;99.90;;;;;;6214618;23;20162;-87
2023/09/25 10:09:34;;;;;;;4.17;1.43;;;22.80;99.90;;;;;;6237131;23;20190;-86
2023/09/25 10:12:02;;;;;;;3.60;1.70;;;22.60;99.90;;;;;;6163256;23;20201;-86
2023/09/25 10:14:29;;;;;;;5.00;1.30;;;22.60;99.90;;;;;;6212730;23;20256;-86
2023/09/25 10:17:03;;;;;;;2.07;1.60;;;22.60;99.90;;;;;;6164098;23;20181;-86
2023/09/25 10:19:40;;;;;;;1.87;1.70;;;23.30;99.90;;;;;;6188561;23;20212;-85
2023/09/25 10:22:10;;;;;;;1.50;1.40;;;23.70;99.90;;;;;;6238542;23;20526;-86
2023/09/25 10:24:37;;;;;;;1.67;1.40;;;23.40;99.90;;;;;;6239833;23;20158;-87
2023/09/25 10:27:03;;;;;;;3.53;1.55;;;23.50;99.90;;;;;;6188670;23;20208;-84
2023/09/25 10:29:29;;;;;;;2.65;1.60;;;23.10;99.90;;;;;;6188732;23;20205;-87
2023/09/25 10:31:55;;;;;;;1.50;1.40;;;22.80;99.90;;;;;;6212705;23;20659;-87
2023/09/25 10:34:29;;;;;;;2.08;1.63;;;22.40;99.90;;;;;;6159799;23;20205;-87
2023/09/25 10:37:00;;;;;;;2.10;1.53;;;21.90;99.90;;;;;;6185632;23;20151;-86
2023/09/25 10:39:27;;;;;;;2.13;1.60;;;21.70;99.90;;;;;;6188601;23;20173;-86
2023/09/25 10:42:06;;;;;;;3.53;1.40;;;21.90;99.90;;;;;;6212736;23;20639;-85
2023/09/25 10:44:36;;;;;;;2.47;1.30;;;22.70;99.90;;;;;;6213787;23;20204;-87
2023/09/25 10:47:10;;;;;;;1.30;1.07;;;23.90;99.90;;;;;;6212743;23;20647;-86
2023/09/25 10:49:37;;;;;;;2.20;1.77;;;23.90;99.90;;;;;;6165189;23;20280;-89
2023/09/25 10:52:03;;;;;;;2.33;1.27;;;23.70;99.90;;;;;;6189334;23;20525;-85
2023/09/25 10:54:30;;;;;;;1.73;1.40;;;24.20;99.90;;;;;;6190219;23;20201;-86
2023/09/25 10:56:59;;;;;;;2.00;1.77;;;24.00;99.90;;;;;;6213793;23;20198;-87
2023/09/25 10:59:26;;;;;;;3.00;1.90;;;23.80;99.90;;;;;;6214529;23;20224;-87
2023/09/25 11:01:52;;;;;;;2.95;1.60;;;23.80;99.90;;;;;;6187663;23;20196;-86
2023/09/25 11:04:18;;;;;;;1.25;1.15;;;23.80;99.90;;;;;;6187548;23;20651;-86
2023/09/25 11:06:45;;;;;;;2.65;1.65;;;23.90;99.90;;;;;;6187966;23;20187;-85
2023/09/25 11:09:17;;;;;;;1.92;1.27;;;23.30;99.90;;;;;;6213181;23;20568;-88
2023/09/25 11:11:44;;;;;;;1.88;1.50;;;23.30;99.90;;;;;;6213520;23;20198;-87
2023/09/25 11:14:11;;;;;;;4.15;1.77;;;23.00;99.90;;;;;;6188481;23;20713;-89
2023/09/25 11:16:37;;;;;;;1.95;1.27;;;23.40;99.90;;;;;;6215365;23;20673;-91
2023/09/25 11:19:18;;;;;;;3.38;1.50;;;23.70;99.90;;;;;;6189949;23;20194;-93
2023/09/25 11:21:49;;;;;;;3.28;1.95;;;23.50;99.90;;;;;;6215052;23;20165;-88
2023/09/25 11:24:15;;;;;;;4.35;2.20;;;22.70;99.90;;;;;;6189793;23;20717;-89
2023/09/25 11:26:42;;;;;;;2.05;1.80;;;22.10;99.90;;;;;;6188837;23;20201;-88
2023/09/25 11:29:09;;;;;;;6.40;1.92;;;21.90;99.90;;;;;;6213470;23;20268;-89
2023/09/25 11:31:38;;;;;;;1.90;1.40;;;22.00;99.90;;;;;;6188090;23;20213;-90
2023/09/25 11:34:07;;;;;;;2.50;1.63;;;21.90;99.90;;;;;;6184903;23;20264;-89
2023/09/25 11:36:34;;;;;;;2.35;1.88;;;21.80;99.90;;;;;;6210174;23;20162;-89
2023/09/25 11:39:01;;;;;;;3.97;1.80;;;21.80;99.90;;;;;;6188117;23;20208;-89
2023/09/25 11:41:27;;;;;;;2.42;1.52;;;21.90;99.90;;;;;;6188649;23;20220;-90
2023/09/25 11:43:52;;;;;;;1.67;1.57;;;21.80;99.90;;;;;;6213838;23;20520;-89
2023/09/25 11:46:18;;;;;;;3.35;1.98;;;21.80;99.90;;;;;;6188476;23;20189;-88
2023/09/25 11:48:45;;;;;;;3.93;1.90;;;21.90;99.90;;;;;;6189071;23;20669;-88
2023/09/25 11:51:10;;;;;;;2.57;1.83;;;21.60;99.90;;;;;;6164814;23;20189;-88
2023/09/25 11:53:36;;;;;;;3.85;2.22;;;21.30;99.90;;;;;;6213193;23;20194;-88
2023/09/25 11:56:04;;;;;;;3.87;2.00;;;21.20;99.90;;;;;;6212485;23;20194;-88
2023/09/25 11:58:31;;;;;;;1.73;1.63;;;21.10;99.90;;;;;;6163634;23;20682;-88
2023/09/25 12:00:56;;;;;;;3.30;1.77;;;21.30;99.90;;;;;;6238326;23;20154;-86
2023/09/25 12:03:22;;;;;;;3.30;1.70;;;21.50;99.90;;;;;;6163579;23;20340;-85
2023/09/25 12:05:48;;;;;;;3.50;1.53;;;21.70;99.90;;;;;;6162580;23;20327;-87
2023/09/25 12:08:16;;;;;;;3.63;2.13;;;21.80;99.90;;;;;;6162408;23;20198;-87
2023/09/25 12:10:42;;;;;;;2.93;1.57;;;22.00;99.90;;;;;;6163221;23;20689;-86
2023/09/25 12:13:09;;;;;;;2.43;1.63;;;21.80;99.90;;;;;;6163075;23;20197;-86
2023/09/25 12:15:35;;;;;;;3.30;1.50;;;21.90;99.90;;;;;;6212895;23;20241;-86
2023/09/25 12:18:02;;;;;;;2.97;1.90;;;21.50;99.90;;;;;;6187863;23;20507;-86
2023/09/25 12:20:29;;;;;;;2.60;1.90;;;21.60;99.90;;;;;;6187650;23;20500;-85
2023/09/25 12:22:56;;;;;;;4.60;1.70;;;21.60;99.90;;;;;;6187871;23;20189;-86
2023/09/25 12:25:22;;;;;;;2.00;1.57;;;21.60;99.90;;;;;;6163039;23;20190;-85
2023/09/25 12:27:48;;;;;;;4.00;1.83;;;21.50;99.90;;;;;;6162538;23;20162;-86
2023/09/25 12:30:16;;;;;;;4.17;1.77;;;21.50;99.90;;;;;;6211990;23;20209;-85
2023/09/25 12:32:43;;;;;;;2.60;1.40;;;21.30;99.90;;;;;;6185637;23;20201;-86
2023/09/25 12:35:14;;;;;;;1.77;1.30;;;21.20;99.90;;;;;;6207489;23;20206;-85
2023/09/25 12:37:43;;;;;;;2.10;1.63;;;21.20;99.90;;;;;;6183916;23;20729;-86
2023/09/25 12:40:10;;;;;;;2.93;1.67;;;21.30;99.90;;;;;;6212115;23;20619;-86
2023/09/25 12:42:36;;;;;;;5.67;1.87;;;21.40;99.90;;;;;;6187534;23;20220;-85
2023/09/25 12:45:04;;;;;;;4.33;1.83;;;21.30;99.90;;;;;;6161802;23;20201;-88
2023/09/25 12:47:30;;;;;;;2.23;1.40;;;21.60;99.90;;;;;;6187309;23;20204;-86